createdAt,value
2023-01-11T00:00:29.140Z,6.95
2023-01-11T00:03:00.980Z,6.38
2023-01-11T00:05:27.518Z,4.35
2023-01-11T00:07:54.168Z,4.38
2023-01-11T00:10:20.865Z,5.22
2023-01-11T00:12:47.545Z,6.82
2023-01-11T00:15:14.679Z,3.85
2023-01-11T00:17:41.796Z,6.13
2023-01-11T00:20:10.448Z,7.45
2023-01-11T00:22:37.948Z,7.20
2023-01-11T00:25:05.431Z,6.32
2023-01-11T00:27:31.850Z,9.57
2023-01-11T00:29:58.228Z,9.32
2023-01-11T00:32:24.690Z,8.07
2023-01-11T00:34:51.043Z,5.07
2023-01-11T00:37:17.442Z,7.82
2023-01-11T00:39:43.811Z,10.75
2023-01-11T00:42:30.165Z,9.38
2023-01-11T00:45:15.420Z,4.43
2023-01-11T00:48:00.190Z,4.18
2023-01-11T00:50:37.816Z,4.32
2023-01-11T00:53:05.450Z,5.72
2023-01-11T00:55:32.454Z,7.45
2023-01-11T00:57:59.251Z,2.30
2023-01-11T01:00:25.773Z,5.35
2023-01-11T01:02:52.260Z,5.82
2023-01-11T01:05:19.069Z,7.65
2023-01-11T01:07:46.313Z,3.67
2023-01-11T01:10:15.609Z,5.40
2023-01-11T01:13:00.689Z,5.25
2023-01-11T01:15:27.503Z,5.88
2023-01-11T01:17:55.586Z,4.35
2023-01-11T01:20:23.343Z,6.30
2023-01-11T01:22:50.433Z,7.05
2023-01-11T01:25:17.300Z,5.43
2023-01-11T01:27:43.650Z,4.25
2023-01-11T01:30:10.566Z,7.97
2023-01-11T01:32:36.978Z,5.75
2023-01-11T01:35:03.534Z,5.57
2023-01-11T01:37:29.977Z,4.13
2023-01-11T01:39:56.368Z,3.53
2023-01-11T01:42:24.067Z,6.30
2023-01-11T01:45:00.911Z,7.75
2023-01-11T01:47:40.504Z,3.88
2023-01-11T01:50:12.864Z,6.97
2023-01-11T01:52:40.725Z,6.57
2023-01-11T01:55:12.175Z,6.82
2023-01-11T01:57:43.624Z,8.73
2023-01-11T02:00:10.889Z,3.75
2023-01-11T02:02:39.824Z,6.30
2023-01-11T02:05:08.103Z,4.65
2023-01-11T02:07:37.920Z,8.38
2023-01-11T02:10:15.707Z,6.60
2023-01-11T02:12:50.845Z,4.72
2023-01-11T02:15:19.590Z,6.10
2023-01-11T02:17:46.048Z,6.55
2023-01-11T02:20:28.269Z,3.15
2023-01-11T02:23:30.484Z,5.57
2023-01-11T02:26:15.891Z,4.07
2023-01-11T02:28:56.915Z,5.10
2023-01-11T02:31:49.749Z,6.20
2023-01-11T02:34:25.451Z,4.72
2023-01-11T02:37:38.352Z,6.55
2023-01-11T02:40:21.537Z,4.28
2023-01-11T02:43:12.040Z,7.18
2023-01-11T02:45:41.170Z,4.25
2023-01-11T02:48:13.488Z,5.35
2023-01-11T02:50:46.051Z,5.00
2023-01-11T02:53:31.031Z,5.95
2023-01-11T02:56:01.351Z,5.57
2023-01-11T02:58:32.828Z,3.70
2023-01-11T03:00:59.753Z,5.63
2023-01-11T03:03:29.662Z,4.63
2023-01-11T03:06:13.657Z,5.18
2023-01-11T03:09:05.115Z,4.38
2023-01-11T03:12:19.696Z,3.30
2023-01-11T03:15:12.527Z,2.55
2023-01-11T03:17:47.363Z,6.50
2023-01-11T03:20:30.662Z,4.75
2023-01-11T03:23:19.091Z,3.65
2023-01-11T03:26:02.004Z,4.07
2023-01-11T03:28:48.433Z,4.45
2023-01-11T03:31:26.136Z,4.50
2023-01-11T03:34:15.471Z,5.30
2023-01-11T03:36:56.836Z,6.43
2023-01-11T03:39:26.034Z,5.35
2023-01-11T03:41:57.227Z,4.25
2023-01-11T03:44:26.212Z,7.28
2023-01-11T03:47:02.177Z,6.28
2023-01-11T03:49:36.602Z,5.60
2023-01-11T03:52:07.145Z,6.20
2023-01-11T03:54:33.818Z,5.47
2023-01-11T03:57:08.622Z,4.32
2023-01-11T03:59:35.045Z,4.38
2023-01-11T04:02:02.255Z,5.68
2023-01-11T04:04:28.803Z,5.45
2023-01-11T04:06:55.374Z,6.88
2023-01-11T04:09:22.144Z,4.13
2023-01-11T04:11:48.646Z,5.20
2023-01-11T04:14:14.997Z,5.57
2023-01-11T04:16:41.435Z,5.10
2023-01-11T04:19:07.881Z,3.58
2023-01-11T04:21:34.294Z,8.88
2023-01-11T04:24:01.768Z,5.05
2023-01-11T04:26:28.112Z,6.93
2023-01-11T04:28:54.634Z,7.57
2023-01-11T04:31:21.164Z,5.53
2023-01-11T04:33:47.633Z,6.47
2023-01-11T04:36:14.412Z,8.02
2023-01-11T04:38:40.951Z,4.88
2023-01-11T04:41:26.269Z,12.40
2023-01-11T04:43:56.439Z,8.43
2023-01-11T04:46:23.877Z,8.25
2023-01-11T04:48:50.634Z,7.22
2023-01-11T04:51:17.380Z,4.68
2023-01-11T04:53:43.804Z,8.02
2023-01-11T04:56:12.043Z,6.85
2023-01-11T04:58:38.464Z,6.95
2023-01-11T05:01:14.271Z,9.70
2023-01-11T05:03:40.788Z,7.15
2023-01-11T05:06:07.710Z,7.00
2023-01-11T05:08:35.153Z,7.65
2023-01-11T05:11:04.972Z,8.07
2023-01-11T05:13:43.197Z,4.30
2023-01-11T05:16:23.894Z,7.35
2023-01-11T05:18:56.116Z,6.93
2023-01-11T05:21:24.720Z,6.57
2023-01-11T05:23:52.136Z,9.13
2023-01-11T05:26:24.521Z,6.10
2023-01-11T05:28:52.051Z,6.45
2023-01-11T05:31:19.093Z,7.57
2023-01-11T05:33:45.871Z,6.60
2023-01-11T05:36:14.601Z,6.15
2023-01-11T05:38:41.224Z,9.52
2023-01-11T05:41:09.716Z,7.57
2023-01-11T05:43:56.209Z,6.68
2023-01-11T05:46:23.360Z,9.15
2023-01-11T05:48:50.005Z,7.55
2023-01-11T05:51:17.873Z,7.40
2023-01-11T05:53:44.271Z,7.20
2023-01-11T05:56:10.788Z,11.30
2023-01-11T05:58:37.247Z,11.55
2023-01-11T06:01:03.941Z,9.75
2023-01-11T06:03:30.399Z,9.60
2023-01-11T06:05:59.083Z,10.63
2023-01-11T06:08:26.089Z,9.57
2023-01-11T06:10:56.573Z,12.43
2023-01-11T06:13:27.841Z,12.68
2023-01-11T06:16:09.869Z,12.43
2023-01-11T06:18:38.513Z,14.82
2023-01-11T06:21:05.787Z,17.88
2023-01-11T06:23:34.231Z,11.75
2023-01-11T06:26:02.836Z,10.45
2023-01-11T06:28:29.550Z,10.05
2023-01-11T06:30:57.642Z,12.40
2023-01-11T06:33:25.671Z,16.20
2023-01-11T06:35:52.590Z,13.82
2023-01-11T06:38:21.819Z,12.23
2023-01-11T06:41:08.399Z,12.75
2023-01-11T06:43:37.250Z,16.10
2023-01-11T06:46:04.135Z,13.80
2023-01-11T06:48:30.619Z,9.65
2023-01-11T06:50:58.426Z,12.57
2023-01-11T06:53:28.402Z,13.40
2023-01-11T06:55:57.180Z,14.88
2023-01-11T06:58:25.034Z,10.68
2023-01-11T07:00:53.186Z,16.73
2023-01-11T07:03:24.145Z,13.05
2023-01-11T07:05:52.305Z,15.25
2023-01-11T07:08:19.230Z,12.68
2023-01-11T07:10:46.176Z,12.23
2023-01-11T07:13:12.634Z,12.68
2023-01-11T07:15:39.150Z,13.63
2023-01-11T07:18:05.666Z,14.02
2023-01-11T07:20:31.999Z,13.48
2023-01-11T07:22:59.508Z,12.48
2023-01-11T07:25:27.741Z,15.07
2023-01-11T07:27:59.410Z,13.45
2023-01-11T07:30:27.580Z,12.90
2023-01-11T07:32:54.475Z,18.75
2023-01-11T07:35:21.246Z,13.18
2023-01-11T07:37:47.682Z,14.13
2023-01-11T07:40:16.255Z,15.82
2023-01-11T07:43:11.952Z,17.52
2023-01-11T07:45:45.641Z,14.80
2023-01-11T07:48:13.027Z,16.02
2023-01-11T07:50:42.830Z,15.20
2023-01-11T07:55:38.713Z,12.07
2023-01-11T07:58:06.507Z,12.30
2023-01-11T08:00:32.940Z,14.07
2023-01-11T08:03:00.763Z,14.63
2023-01-11T08:05:27.272Z,15.23
2023-01-11T08:07:53.746Z,13.25
2023-01-11T08:10:20.199Z,13.90
2023-01-11T08:13:07.192Z,15.48
2023-01-11T08:15:36.607Z,14.05
2023-01-11T08:18:05.605Z,17.42
2023-01-11T08:20:32.090Z,14.95
2023-01-11T08:23:02.927Z,14.13
2023-01-11T08:25:29.308Z,20.00
2023-01-11T08:27:55.682Z,15.00
2023-01-11T08:30:22.039Z,16.15
2023-01-11T08:32:48.442Z,12.55
2023-01-11T08:35:14.892Z,13.48
2023-01-11T08:37:41.285Z,13.77
2023-01-11T08:40:08.529Z,15.32
2023-01-11T08:42:35.173Z,12.75
2023-01-11T08:45:01.829Z,12.50
2023-01-11T08:47:28.379Z,13.32
2023-01-11T08:49:54.878Z,13.05
2023-01-11T08:52:21.593Z,12.63
2023-01-11T08:54:48.003Z,12.40
2023-01-11T08:57:14.369Z,11.73
2023-01-11T08:59:40.784Z,12.00
2023-01-11T09:02:07.482Z,11.35
2023-01-11T09:04:34.065Z,12.57
2023-01-11T09:07:01.591Z,14.65
2023-01-11T09:09:27.971Z,11.40
2023-01-11T09:11:56.353Z,12.90
2023-01-11T09:14:27.066Z,14.20
2023-01-11T09:16:54.555Z,10.27
2023-01-11T09:19:21.877Z,12.23
2023-01-11T09:21:48.683Z,10.23
2023-01-11T09:24:15.136Z,11.40
2023-01-11T09:26:43.368Z,11.50
2023-01-11T09:29:11.364Z,11.68
2023-01-11T09:31:37.980Z,9.80
2023-01-11T09:34:05.369Z,13.95
2023-01-11T09:36:33.275Z,10.77
2023-01-11T09:39:01.729Z,15.10
2023-01-11T09:41:41.791Z,10.93
2023-01-11T09:44:16.549Z,12.95
2023-01-11T09:46:48.136Z,11.10
2023-01-11T09:49:25.030Z,13.73
2023-01-11T09:51:53.443Z,11.40
2023-01-11T09:54:27.075Z,13.88
2023-01-11T09:57:10.431Z,12.40
2023-01-11T09:59:50.629Z,12.48
2023-01-11T10:02:35.840Z,11.13
2023-01-11T10:05:19.482Z,12.50
2023-01-11T10:18:29.669Z,14.27
2023-01-11T10:18:39.148Z,10.48
2023-01-11T10:20:30.680Z,10.57
2023-01-11T10:23:17.257Z,13.60
2023-01-11T10:25:51.333Z,10.02
2023-01-11T10:28:24.980Z,11.65
2023-01-11T10:31:08.157Z,10.10
2023-01-11T10:33:46.678Z,14.23
2023-01-11T10:37:05.676Z,10.20
2023-01-11T10:40:09.220Z,9.00
2023-01-11T10:42:46.606Z,10.20
2023-01-11T10:45:18.583Z,9.38
2023-01-11T10:48:18.646Z,11.68
2023-01-11T10:51:01.502Z,8.50
2023-01-11T10:53:43.436Z,8.60
2023-01-11T10:56:15.888Z,9.07
2023-01-11T10:59:17.827Z,9.48
2023-01-11T11:02:12.837Z,9.00
2023-01-11T11:05:01.451Z,10.63
2023-01-11T11:07:54.104Z,10.20
2023-01-11T11:10:36.473Z,10.48
2023-01-11T11:13:14.985Z,7.45
2023-01-11T11:15:56.844Z,10.43
2023-01-11T11:18:26.156Z,10.00
2023-01-11T11:20:52.488Z,8.05
2023-01-11T11:23:23.056Z,11.27
2023-01-11T11:25:55.046Z,9.63
2023-01-11T11:28:32.947Z,7.85
2023-01-11T11:31:03.062Z,9.60
2023-01-11T11:33:37.618Z,8.73
2023-01-11T11:36:09.138Z,10.77
2023-01-11T11:38:38.048Z,8.95
2023-01-11T11:41:04.528Z,7.72
2023-01-11T11:43:33.549Z,7.72
2023-01-11T11:46:18.664Z,8.18
2023-01-11T11:49:13.291Z,9.68
2023-01-11T11:51:42.845Z,11.35
2023-01-11T11:54:32.496Z,9.75
2023-01-11T11:57:12.529Z,10.15
2023-01-11T11:59:43.585Z,8.23
2023-01-11T12:02:24.085Z,8.88
2023-01-11T12:04:51.540Z,9.05
2023-01-11T12:07:24.042Z,8.85
2023-01-11T12:09:56.266Z,7.22
2023-01-11T12:12:25.890Z,8.48
2023-01-11T12:15:15.221Z,7.30
2023-01-11T12:17:42.562Z,9.70
2023-01-11T12:20:21.133Z,8.27
2023-01-11T12:22:48.651Z,9.00
2023-01-11T12:25:15.168Z,7.65
2023-01-11T12:28:02.024Z,8.60
2023-01-11T12:31:03.345Z,10.05
2023-01-11T12:33:47.565Z,8.82
2023-01-11T12:36:49.867Z,9.80
2023-01-11T12:39:38.057Z,8.20
2023-01-11T12:42:11.354Z,8.80
2023-01-11T12:44:55.357Z,10.25
2023-01-11T12:47:52.477Z,8.95
2023-01-11T12:50:25.331Z,9.40
2023-01-11T12:53:27.957Z,9.20
2023-01-11T12:56:24.142Z,8.32
2023-01-11T12:59:35.124Z,8.43
2023-01-11T13:02:07.492Z,10.40
2023-01-11T13:04:52.770Z,11.00
2023-01-11T13:08:07.254Z,7.85
2023-01-11T13:10:42.979Z,8.25
2023-01-11T13:13:19.052Z,8.50
2023-01-11T13:16:14.496Z,10.10
2023-01-11T13:18:51.016Z,11.10
2023-01-11T13:21:40.944Z,8.23
2023-01-11T13:24:15.541Z,11.13
2023-01-11T13:26:46.854Z,8.52
2023-01-11T13:29:37.325Z,12.05
2023-01-11T13:32:08.749Z,9.45
2023-01-11T13:34:41.355Z,11.68
2023-01-11T13:37:18.919Z,8.85
2023-01-11T13:39:54.660Z,12.07
2023-01-11T13:42:25.134Z,13.27
2023-01-11T13:45:00.607Z,16.58
2023-01-11T13:47:30.490Z,16.20
2023-01-11T13:50:00.563Z,13.38
2023-01-11T13:52:44.330Z,21.35
2023-01-11T13:55:40.659Z,15.77
2023-01-11T13:58:16.626Z,13.05
2023-01-11T14:00:50.038Z,11.98
2023-01-11T14:03:35.127Z,13.38
2023-01-11T14:06:32.054Z,14.43
2023-01-11T14:09:14.705Z,12.82
2023-01-11T14:12:03.061Z,13.45
2023-01-11T14:17:32.270Z,12.10
2023-01-11T14:20:26.142Z,13.82
2023-01-11T14:23:13.292Z,11.35
2023-01-11T14:25:51.653Z,12.40
2023-01-11T14:28:50.973Z,14.88
2023-01-11T14:31:50.569Z,18.77
2023-01-11T14:34:47.984Z,17.02
2023-01-11T14:37:34.610Z,20.35
2023-01-11T14:40:20.088Z,12.63
2023-01-11T14:43:22.629Z,12.48
2023-01-11T14:46:09.661Z,15.50
2023-01-11T14:49:20.797Z,12.60
2023-01-11T14:51:56.276Z,16.45
2023-01-11T14:54:27.834Z,11.38
2023-01-11T14:56:58.548Z,13.45
2023-01-11T14:59:30.993Z,11.30
2023-01-11T15:02:03.713Z,13.27
2023-01-11T15:04:38.566Z,13.25
2023-01-11T15:07:22.502Z,12.60
2023-01-11T15:09:53.439Z,14.25
2023-01-11T15:12:23.056Z,12.05
2023-01-11T15:15:08.191Z,11.82
2023-01-11T15:17:53.421Z,17.48
2023-01-11T15:20:22.047Z,11.25
2023-01-11T15:23:01.374Z,13.20
2023-01-11T15:25:33.514Z,11.95
2023-01-11T15:28:04.514Z,14.27
2023-01-11T15:30:30.859Z,13.73
2023-01-11T15:33:19.253Z,11.38
2023-01-11T15:35:54.952Z,11.73
2023-01-11T15:38:52.129Z,15.98
2023-01-11T15:41:48.901Z,14.38
2023-01-11T15:44:42.584Z,10.40
2023-01-11T15:47:42.693Z,16.38
2023-01-11T15:50:35.721Z,17.95
2023-01-11T15:53:43.605Z,14.63
2023-01-11T15:56:13.018Z,12.07
2023-01-11T15:59:12.017Z,13.63
2023-01-11T16:02:04.102Z,15.20
2023-01-11T16:04:40.777Z,11.60
2023-01-11T16:07:34.019Z,13.27
2023-01-11T16:10:07.627Z,13.77
2023-01-11T16:13:00.597Z,15.15
2023-01-11T16:16:03.997Z,16.50
2023-01-11T16:18:38.784Z,18.83
2023-01-11T16:21:12.644Z,15.73
2023-01-11T16:23:39.845Z,14.52
2023-01-11T16:26:07.593Z,16.33
2023-01-11T16:28:34.613Z,13.10
2023-01-11T16:31:04.577Z,19.58
2023-01-11T16:33:34.596Z,15.88
2023-01-11T16:36:38.485Z,20.98
2023-01-11T16:39:11.697Z,17.77
2023-01-11T16:41:46.331Z,22.25
2023-01-11T16:44:41.546Z,19.75
2023-01-11T16:47:14.636Z,15.40
2023-01-11T16:49:43.284Z,18.65
2023-01-11T16:52:34.723Z,17.60
2023-01-11T16:55:03.487Z,28.42
2023-01-11T16:57:37.130Z,22.88
2023-01-11T17:00:18.810Z,45.03
2023-01-11T17:02:48.785Z,20.98
2023-01-11T17:05:23.831Z,19.88
2023-01-11T17:07:50.496Z,19.30
2023-01-11T17:10:24.979Z,19.90
2023-01-11T17:13:28.717Z,20.02
2023-01-11T17:16:02.356Z,24.35
2023-01-11T17:18:28.829Z,21.65
2023-01-11T17:20:55.293Z,18.55
2023-01-11T17:23:21.744Z,21.85
2023-01-11T17:25:55.848Z,15.50
2023-01-11T17:28:22.360Z,17.70
2023-01-11T17:30:52.282Z,16.65
2023-01-11T17:33:29.021Z,17.77
2023-01-11T17:35:55.676Z,21.52
2023-01-11T17:38:25.671Z,20.35
2023-01-11T17:40:56.603Z,21.40
2023-01-11T17:43:48.676Z,23.75
2023-01-11T17:46:24.426Z,26.65
2023-01-11T17:48:56.810Z,27.73
2023-01-11T17:51:29.029Z,34.70
2023-01-11T17:53:55.563Z,30.10
2023-01-11T17:56:37.841Z,32.53
2023-01-11T17:59:36.610Z,38.85
2023-01-11T18:02:11.919Z,25.65
2023-01-11T18:04:38.685Z,29.08
2023-01-11T18:07:08.879Z,25.98
2023-01-11T18:09:45.803Z,24.70
2023-01-11T18:15:02.766Z,17.30
2023-01-11T18:20:00.392Z,6.88
2023-01-11T18:22:37.085Z,7.05
2023-01-11T18:25:23.330Z,5.85
2023-01-11T18:27:50.342Z,6.00
2023-01-11T18:30:32.235Z,5.53
2023-01-11T18:33:01.888Z,4.47
2023-01-11T18:35:29.542Z,5.90
2023-01-11T18:37:56.550Z,4.57
2023-01-11T18:40:23.086Z,6.40
2023-01-11T18:42:52.725Z,6.55
2023-01-11T18:45:20.167Z,8.07
2023-01-11T18:47:46.541Z,6.32
2023-01-11T18:50:13.990Z,5.13
2023-01-11T18:52:40.727Z,3.45
2023-01-11T18:55:09.953Z,4.70
2023-01-11T18:57:36.405Z,6.38
2023-01-11T19:00:03.958Z,4.80
2023-01-11T19:02:42.353Z,5.63
2023-01-11T19:05:14.941Z,3.45
2023-01-11T19:07:41.492Z,2.83
2023-01-11T19:10:08.476Z,2.00
2023-01-11T19:12:34.988Z,6.45
2023-01-11T19:15:01.412Z,5.85
2023-01-11T19:17:28.445Z,4.68
2023-01-11T19:19:54.856Z,2.90
2023-01-11T19:22:24.573Z,4.68
2023-01-11T19:24:53.081Z,2.45
2023-01-11T19:27:19.509Z,5.70
2023-01-11T19:29:45.925Z,2.67
2023-01-11T19:32:12.373Z,3.30
2023-01-11T19:34:39.847Z,4.78
2023-01-11T19:37:06.389Z,3.92
2023-01-11T19:39:34.169Z,2.45
2023-01-11T19:42:02.301Z,2.60
2023-01-11T19:44:38.712Z,2.03
2023-01-11T19:47:11.443Z,5.28
2023-01-11T19:49:40.122Z,3.13
2023-01-11T19:52:12.196Z,4.15
2023-01-11T19:54:42.653Z,3.08
2023-01-11T19:57:14.592Z,3.85
2023-01-11T19:59:41.333Z,4.03
2023-01-11T20:02:10.066Z,4.00
2023-01-11T20:04:37.176Z,3.70
2023-01-11T20:07:03.769Z,5.72
2023-01-11T20:09:30.166Z,5.60
2023-01-11T20:11:58.660Z,3.63
2023-01-11T20:14:26.528Z,3.63
2023-01-11T20:16:52.983Z,3.58
2023-01-11T20:19:19.313Z,3.40
2023-01-11T20:21:46.737Z,2.28
2023-01-11T20:24:13.979Z,3.80
2023-01-11T20:26:41.549Z,3.08
2023-01-11T20:29:08.000Z,2.60
2023-01-11T20:31:35.614Z,4.22
2023-01-11T20:34:11.253Z,6.20
2023-01-11T20:36:37.979Z,7.00
2023-01-11T20:39:05.293Z,4.65
2023-01-11T20:41:46.872Z,4.38
2023-01-11T20:44:24.843Z,4.85
2023-01-11T20:46:52.829Z,6.20
2023-01-11T20:49:21.443Z,4.72
2023-01-11T20:51:47.954Z,7.57
2023-01-11T20:54:14.837Z,7.50
2023-01-11T20:56:41.690Z,7.28
2023-01-11T20:59:09.206Z,7.70
2023-01-11T21:01:36.454Z,9.77
2023-01-11T21:04:06.289Z,5.72
2023-01-11T21:06:34.155Z,4.80
2023-01-11T21:09:01.829Z,6.47
2023-01-11T21:11:30.660Z,9.05
2023-01-11T21:13:59.212Z,7.63
2023-01-11T21:16:27.962Z,7.18
2023-01-11T21:19:02.448Z,7.85
2023-01-11T21:21:31.112Z,5.10
2023-01-11T21:23:59.791Z,6.22
2023-01-11T21:26:27.396Z,5.25
2023-01-11T21:28:59.225Z,6.28
2023-01-11T21:31:33.682Z,4.43
2023-01-11T21:34:00.398Z,4.68
2023-01-11T21:36:28.841Z,6.25
2023-01-11T21:38:56.708Z,5.18
2023-01-11T21:41:44.899Z,2.95
2023-01-11T21:44:12.973Z,4.60
2023-01-11T21:46:40.572Z,8.13
2023-01-11T21:49:07.555Z,3.92
2023-01-11T21:51:34.537Z,3.45
2023-01-11T21:54:04.676Z,6.35
2023-01-11T21:56:31.121Z,2.78
2023-01-11T21:58:57.504Z,2.95
2023-01-11T22:01:23.903Z,3.83
2023-01-11T22:03:50.363Z,7.35
2023-01-11T22:06:17.169Z,6.07
2023-01-11T22:08:45.991Z,7.40
2023-01-11T22:11:14.479Z,4.32
2023-01-11T22:13:41.677Z,4.47
2023-01-11T22:16:12.044Z,3.45
2023-01-11T22:18:40.523Z,3.78
2023-01-11T22:21:24.771Z,4.28
2023-01-11T22:23:56.335Z,4.68
2023-01-11T22:26:23.876Z,6.60
2023-01-11T22:29:12.133Z,5.45
2023-01-11T22:34:06.826Z,3.92
2023-01-11T22:36:33.496Z,3.80
2023-01-11T22:38:59.852Z,3.55
2023-01-11T22:41:26.467Z,6.50
2023-01-11T22:43:54.354Z,5.43
2023-01-11T22:46:23.344Z,5.90
2023-01-11T22:48:50.615Z,7.53
2023-01-11T22:51:18.786Z,7.30
2023-01-11T22:53:47.016Z,6.18
2023-01-11T22:56:15.489Z,3.47
2023-01-11T22:58:41.889Z,3.58
2023-01-11T23:01:17.019Z,3.47
2023-01-11T23:03:45.193Z,4.38
2023-01-11T23:06:12.149Z,5.38
2023-01-11T23:08:43.097Z,2.28
2023-01-11T23:11:35.652Z,2.33
2023-01-11T23:14:10.272Z,4.53
2023-01-11T23:16:37.451Z,6.05
2023-01-11T23:19:05.295Z,1.75
2023-01-11T23:21:31.701Z,2.90
2023-01-11T23:24:00.411Z,3.42
2023-01-11T23:26:26.792Z,3.03
2023-01-11T23:28:53.209Z,2.30
2023-01-11T23:31:22.541Z,4.63
2023-01-11T23:33:51.502Z,2.42
2023-01-11T23:36:20.509Z,3.58
2023-01-11T23:38:47.510Z,2.47
2023-01-11T23:41:34.779Z,2.42
2023-01-11T23:44:02.190Z,7.10
2023-01-11T23:46:47.029Z,2.28
2023-01-11T23:49:16.150Z,2.30
2023-01-11T23:51:42.955Z,1.55
2023-01-11T23:54:10.010Z,2.13
2023-01-11T23:56:37.133Z,4.32
2023-01-11T23:59:04.521Z,3.78
